createdAt,value
2018-06-19T00:01:03.231Z,95063.92
2018-06-19T00:03:29.876Z,95064.61
2018-06-19T00:05:56.521Z,95066.07
2018-06-19T00:08:23.158Z,95055.89
2018-06-19T00:10:49.791Z,95056.95
2018-06-19T00:13:16.486Z,95061.50
2018-06-19T00:15:43.115Z,95061.75
2018-06-19T00:18:09.753Z,95067.53
2018-06-19T00:20:36.390Z,95062.64
2018-06-19T00:23:03.053Z,95062.08
2018-06-19T00:25:29.697Z,95064.20
2018-06-19T00:27:56.373Z,95068.38
2018-06-19T00:30:23.050Z,95066.48
2018-06-19T00:32:49.690Z,95057.70
2018-06-19T00:35:16.347Z,95057.81
2018-06-19T00:37:42.950Z,95060.43
2018-06-19T00:40:09.644Z,95053.01
2018-06-19T00:42:36.279Z,95053.27
2018-06-19T00:45:02.927Z,95052.30
2018-06-19T00:47:29.573Z,95047.46
2018-06-19T00:49:56.261Z,95051.38
2018-06-19T00:52:22.904Z,95054.91
2018-06-19T00:54:49.545Z,95048.86
2018-06-19T00:57:16.259Z,95049.82
2018-06-19T00:59:42.923Z,95057.95
2018-06-19T01:02:09.600Z,95053.20
2018-06-19T01:04:36.234Z,95060.28
2018-06-19T01:07:02.874Z,95066.72
2018-06-19T01:09:29.544Z,95059.01
2018-06-19T01:11:56.194Z,95055.09
2018-06-19T01:14:22.829Z,95058.63
2018-06-19T01:16:49.500Z,95056.40
2018-06-19T01:19:16.191Z,95066.12
2018-06-19T01:21:42.831Z,95062.05
2018-06-19T01:24:09.471Z,95064.26
2018-06-19T01:26:36.115Z,95061.36
2018-06-19T01:29:02.805Z,95060.95
2018-06-19T01:31:30.759Z,95059.45
2018-06-19T01:33:56.077Z,95055.67
2018-06-19T01:36:22.763Z,95061.09
2018-06-19T01:38:49.397Z,95059.12
2018-06-19T01:41:16.041Z,95062.79
2018-06-19T01:43:42.687Z,95065.39
2018-06-19T01:46:09.364Z,95068.47
2018-06-19T01:48:36.014Z,95065.65
2018-06-19T01:51:02.691Z,95071.39
2018-06-19T01:53:29.322Z,95071.17
2018-06-19T01:55:56.018Z,95080.79
2018-06-19T01:58:22.652Z,95074.73
2018-06-19T02:00:49.289Z,95079.90
2018-06-19T02:03:15.939Z,95087.23
2018-06-19T02:05:42.617Z,95090.27
2018-06-19T02:08:09.251Z,95085.68
2018-06-19T02:10:35.897Z,95086.47
2018-06-19T02:13:02.614Z,95086.86
2018-06-19T02:15:29.267Z,95088.80
2018-06-19T02:17:55.906Z,95095.20
2018-06-19T02:20:22.594Z,95088.53
2018-06-19T02:22:49.235Z,95088.25
2018-06-19T02:25:15.934Z,95093.60
2018-06-19T02:27:42.571Z,95096.50
2018-06-19T02:30:09.197Z,95098.33
2018-06-19T02:32:35.881Z,95108.89
2018-06-19T02:35:02.595Z,95106.11
2018-06-19T02:37:29.266Z,95105.16
2018-06-19T02:39:55.893Z,95103.67
2018-06-19T02:42:22.610Z,95109.56
2018-06-19T02:44:49.288Z,95108.55
2018-06-19T02:47:15.980Z,95105.14
2018-06-19T02:49:42.605Z,95109.91
2018-06-19T02:52:09.332Z,95105.73
2018-06-19T02:54:37.095Z,95109.74
2018-06-19T02:57:03.776Z,95109.36
2018-06-19T02:59:30.419Z,95115.84
2018-06-19T03:01:57.109Z,95117.58
2018-06-19T03:04:23.746Z,95119.89
2018-06-19T03:06:50.389Z,95119.17
2018-06-19T03:09:17.033Z,95118.50
2018-06-19T03:11:43.675Z,95126.05
2018-06-19T03:14:10.345Z,95125.19
2018-06-19T03:16:36.982Z,95123.98
2018-06-19T03:19:03.657Z,95129.00
2018-06-19T03:21:30.262Z,95127.11
2018-06-19T03:23:56.909Z,95124.91
2018-06-19T03:26:23.549Z,95130.42
2018-06-19T03:28:50.189Z,95127.69
2018-06-19T03:31:16.831Z,95126.72
2018-06-19T03:33:43.469Z,95124.64
2018-06-19T03:36:10.183Z,95124.06
2018-06-19T03:38:36.785Z,95124.69
2018-06-19T03:41:03.477Z,95134.92
2018-06-19T03:43:30.108Z,95132.91
2018-06-19T03:45:56.748Z,95140.82
2018-06-19T03:48:23.396Z,95139.43
2018-06-19T03:50:50.041Z,95138.30
2018-06-19T03:53:16.733Z,95139.06
2018-06-19T03:55:43.377Z,95137.70
2018-06-19T03:58:10.014Z,95141.84
2018-06-19T04:00:36.696Z,95143.56
2018-06-19T04:03:03.385Z,95139.23
2018-06-19T04:05:30.030Z,95148.65
2018-06-19T04:07:56.661Z,95145.87
2018-06-19T04:10:23.376Z,95155.64
2018-06-19T04:12:49.949Z,95155.57
2018-06-19T04:15:16.590Z,95152.95
2018-06-19T04:17:43.228Z,95151.34
2018-06-19T04:20:09.915Z,95153.20
2018-06-19T04:22:36.552Z,95159.53
2018-06-19T04:25:03.189Z,95159.02
2018-06-19T04:27:29.875Z,95155.64
2018-06-19T04:29:56.548Z,95152.19
2018-06-19T04:32:23.178Z,95151.94
2018-06-19T04:34:49.822Z,95153.08
2018-06-19T04:37:16.509Z,95161.45
2018-06-19T04:39:43.152Z,95161.75
2018-06-19T04:42:09.798Z,95158.94
2018-06-19T04:44:36.441Z,95165.82
2018-06-19T04:47:03.123Z,95165.01
2018-06-19T04:49:29.780Z,95171.38
2018-06-19T04:51:56.462Z,95170.78
2018-06-19T04:54:23.097Z,95168.27
2018-06-19T04:56:49.803Z,95169.87
2018-06-19T04:59:16.414Z,95173.11
2018-06-19T05:01:43.059Z,95166.61
2018-06-19T05:04:09.747Z,95172.41
2018-06-19T05:06:36.387Z,95177.81
2018-06-19T05:09:03.073Z,95181.91
2018-06-19T05:11:29.761Z,95183.93
2018-06-19T05:13:56.413Z,95185.14
2018-06-19T05:16:23.094Z,95186.48
2018-06-19T05:18:49.773Z,95187.45
2018-06-19T05:21:16.414Z,95184.16
2018-06-19T05:23:43.093Z,95188.16
2018-06-19T05:26:09.730Z,95194.61
2018-06-19T05:28:36.409Z,95206.05
2018-06-19T05:31:03.117Z,95208.45
2018-06-19T05:33:29.828Z,95202.33
2018-06-19T05:35:56.547Z,95201.17
2018-06-19T05:38:23.196Z,95208.71
2018-06-19T05:40:49.944Z,95206.66
2018-06-19T05:43:16.628Z,95211.09
2018-06-19T05:45:43.272Z,95207.30
2018-06-19T05:48:09.916Z,95208.09
2018-06-19T05:50:36.553Z,95210.73
2018-06-19T05:53:03.193Z,95217.32
2018-06-19T05:55:29.986Z,95214.48
2018-06-19T05:57:56.603Z,95216.60
2018-06-19T06:00:23.241Z,95219.15
2018-06-19T06:02:49.932Z,95205.13
2018-06-19T06:05:16.688Z,95213.72
2018-06-19T06:07:43.324Z,95217.63
2018-06-19T06:10:09.971Z,95197.83
2018-06-19T06:12:36.714Z,95216.32
2018-06-19T06:15:03.316Z,95210.02
2018-06-19T06:17:30.001Z,95216.92
2018-06-19T06:19:56.645Z,95217.20
2018-06-19T06:22:23.362Z,95226.04
2018-06-19T06:24:50.034Z,95223.27
2018-06-19T06:27:16.714Z,95226.84
2018-06-19T06:29:43.355Z,95216.89
2018-06-19T06:32:09.969Z,95227.67
2018-06-19T06:34:36.647Z,95223.06
2018-06-19T06:37:03.358Z,95221.63
2018-06-19T06:39:29.915Z,95225.06
2018-06-19T06:41:56.689Z,95228.15
2018-06-19T06:44:23.407Z,95225.19
2018-06-19T06:46:50.059Z,95224.78
2018-06-19T06:49:16.706Z,95219.84
2018-06-19T06:51:43.356Z,95219.78
2018-06-19T06:54:09.992Z,95225.45
2018-06-19T06:56:36.637Z,95219.61
2018-06-19T06:59:03.294Z,95224.66
2018-06-19T07:01:30.010Z,95219.14
2018-06-19T07:03:56.734Z,95219.90
2018-06-19T07:06:23.342Z,95218.39
2018-06-19T07:08:49.981Z,95220.74
2018-06-19T07:11:16.737Z,95218.77
2018-06-19T07:13:43.473Z,95220.97
2018-06-19T07:16:10.338Z,95218.09
2018-06-19T07:18:36.947Z,95217.52
2018-06-19T07:21:03.636Z,95218.88
2018-06-19T07:23:30.315Z,95216.35
2018-06-19T07:25:57.091Z,95218.50
2018-06-19T07:28:23.642Z,95223.33
2018-06-19T07:30:50.399Z,95214.91
2018-06-19T07:33:19.053Z,95224.11
2018-06-19T07:35:45.692Z,95221.93
2018-06-19T07:38:12.604Z,95222.68
2018-06-19T07:40:39.030Z,95222.41
2018-06-19T07:43:05.770Z,95215.95
2018-06-19T07:45:32.467Z,95219.51
2018-06-19T07:47:59.143Z,95217.98
2018-06-19T07:50:25.784Z,95221.83
2018-06-19T07:52:52.550Z,95222.17
2018-06-19T07:55:19.196Z,95224.55
2018-06-19T07:57:45.901Z,95222.30
2018-06-19T08:00:12.572Z,95214.41
2018-06-19T08:02:39.280Z,95216.45
2018-06-19T08:05:05.935Z,95216.63
2018-06-19T08:07:33.723Z,95215.99
2018-06-19T08:10:00.479Z,95215.92
2018-06-19T08:12:27.085Z,95219.52
2018-06-19T08:14:53.733Z,95218.08
2018-06-19T08:17:20.411Z,95220.27
2018-06-19T08:19:47.039Z,95227.03
2018-06-19T08:22:13.769Z,95224.39
2018-06-19T08:24:40.404Z,95224.91
2018-06-19T08:27:07.040Z,95227.80
2018-06-19T08:29:33.726Z,95229.08
2018-06-19T08:32:00.367Z,95225.16
2018-06-19T08:34:27.087Z,95227.50
2018-06-19T08:36:53.777Z,95229.17
2018-06-19T08:39:20.457Z,95225.31
2018-06-19T08:44:13.730Z,95225.91
2018-06-19T08:46:40.374Z,95224.56
2018-06-19T08:49:07.065Z,95233.14
2018-06-19T08:51:33.748Z,95232.98
2018-06-19T08:54:00.438Z,95233.91
2018-06-19T08:56:27.090Z,95230.77
2018-06-19T08:58:53.727Z,95222.63
2018-06-19T09:01:20.455Z,95231.11
2018-06-19T09:03:47.083Z,95228.15
2018-06-19T09:06:13.770Z,95231.84
2018-06-19T09:08:40.577Z,95226.60
2018-06-19T09:11:07.195Z,95234.87
2018-06-19T09:13:33.936Z,95231.74
2018-06-19T09:16:00.598Z,95229.55
2018-06-19T09:18:27.234Z,95228.64
2018-06-19T09:20:53.944Z,95228.27
2018-06-19T09:23:20.629Z,95229.95
2018-06-19T09:25:47.295Z,95227.47
2018-06-19T09:28:13.977Z,95225.42
2018-06-19T09:30:40.621Z,95226.83
2018-06-19T09:33:07.310Z,95231.87
2018-06-19T09:35:33.955Z,95222.93
2018-06-19T09:38:00.654Z,95213.51
2018-06-19T09:40:27.315Z,95220.14
2018-06-19T09:42:53.982Z,95224.41
2018-06-19T09:45:20.641Z,95223.80
2018-06-19T09:47:47.288Z,95216.62
2018-06-19T09:50:13.944Z,95217.11
2018-06-19T09:52:40.588Z,95217.11
2018-06-19T09:55:07.268Z,95220.53
2018-06-19T09:57:34.023Z,95222.17
2018-06-19T10:00:00.719Z,95217.02
2018-06-19T10:02:27.364Z,95214.64
2018-06-19T10:04:54.001Z,95221.63
2018-06-19T10:07:20.658Z,95211.75
2018-06-19T10:09:47.314Z,95203.95
2018-06-19T10:12:14.181Z,95207.67
2018-06-19T10:14:40.755Z,95211.09
2018-06-19T10:17:07.416Z,95213.91
2018-06-19T10:19:34.143Z,95210.19
2018-06-19T10:22:01.147Z,95208.64
2018-06-19T10:24:27.787Z,95201.42
2018-06-19T10:26:54.421Z,95209.95
2018-06-19T10:29:21.125Z,95198.59
2018-06-19T10:31:47.773Z,95200.95
2018-06-19T10:34:14.452Z,95201.77
2018-06-19T10:36:41.096Z,95204.55
2018-06-19T10:39:07.825Z,95206.44
2018-06-19T10:41:34.490Z,95190.39
2018-06-19T10:44:01.179Z,95192.70
2018-06-19T10:46:27.823Z,95194.47
2018-06-19T10:48:54.503Z,95194.39
2018-06-19T10:51:21.136Z,95190.91
2018-06-19T10:53:47.827Z,95194.06
2018-06-19T10:56:14.505Z,95185.33
2018-06-19T10:58:41.124Z,95181.27
2018-06-19T11:01:07.772Z,95192.53
2018-06-19T11:03:34.419Z,95188.88
2018-06-19T11:06:01.065Z,95189.22
2018-06-19T11:08:27.828Z,95185.45
2018-06-19T11:10:54.507Z,95186.84
2018-06-19T11:13:21.139Z,95187.02
2018-06-19T11:15:47.834Z,95187.26
2018-06-19T11:18:14.505Z,95187.86
2018-06-19T11:20:41.317Z,95181.47
2018-06-19T11:23:08.021Z,95177.89
2018-06-19T11:25:34.725Z,95181.83
2018-06-19T11:28:01.311Z,95177.44
2018-06-19T11:30:28.071Z,95173.35
2018-06-19T11:32:54.720Z,95171.13
2018-06-19T11:35:21.438Z,95174.33
2018-06-19T11:37:48.130Z,95168.76
2018-06-19T11:40:14.943Z,95167.00
2018-06-19T11:42:42.540Z,95174.63
2018-06-19T11:45:09.166Z,95169.61
2018-06-19T11:47:35.862Z,95171.25
2018-06-19T11:50:02.627Z,95169.23
2018-06-19T11:52:29.232Z,95164.25
2018-06-19T11:54:56.784Z,95157.64
2018-06-19T11:57:23.607Z,95155.17
2018-06-19T11:59:50.294Z,95155.81
2018-06-19T12:02:16.963Z,95151.14
2018-06-19T12:04:43.733Z,95153.75
2018-06-19T12:07:10.346Z,95151.42
2018-06-19T12:09:37.089Z,95140.80
2018-06-19T12:12:03.771Z,95143.34
2018-06-19T12:14:30.614Z,95143.35
2018-06-19T12:16:57.411Z,95133.54
2018-06-19T12:19:24.115Z,95147.09
2018-06-19T12:21:50.767Z,95141.87
2018-06-19T12:24:17.415Z,95145.32
2018-06-19T12:26:44.139Z,95144.61
2018-06-19T12:29:11.157Z,95149.08
2018-06-19T12:31:37.826Z,95146.85
2018-06-19T12:34:04.475Z,95147.13
2018-06-19T12:36:31.233Z,95139.91
2018-06-19T12:38:57.759Z,95138.08
2018-06-19T12:41:24.402Z,95144.77
2018-06-19T12:43:51.045Z,95140.86
2018-06-19T12:46:17.701Z,95136.90
2018-06-19T12:48:44.391Z,95127.23
2018-06-19T12:51:13.580Z,95123.11
2018-06-19T12:53:40.237Z,95122.48
2018-06-19T12:56:06.872Z,95124.59
2018-06-19T12:58:33.596Z,95123.47
2018-06-19T13:01:00.242Z,95123.72
2018-06-19T13:03:26.889Z,95114.03
2018-06-19T13:05:53.552Z,95117.57
2018-06-19T13:08:20.193Z,95115.24
2018-06-19T13:10:46.850Z,95118.95
2018-06-19T13:13:18.014Z,95115.87
2018-06-19T13:15:44.761Z,95124.45
2018-06-19T13:18:11.411Z,95118.03
2018-06-19T13:20:38.075Z,95120.08
2018-06-19T13:23:04.713Z,95117.95
2018-06-19T13:25:31.504Z,95117.03
2018-06-19T13:27:58.186Z,95133.36
2018-06-19T13:30:24.866Z,95127.22
2018-06-19T13:32:51.556Z,95129.80
2018-06-19T13:35:18.199Z,95129.70
2018-06-19T13:37:44.844Z,95136.91
2018-06-19T13:40:11.571Z,95141.72
2018-06-19T13:42:38.234Z,95142.03
2018-06-19T13:45:04.909Z,95150.41
2018-06-19T13:47:31.575Z,95146.72
2018-06-19T13:49:58.246Z,95152.72
2018-06-19T13:52:24.919Z,95158.27
2018-06-19T13:54:51.539Z,95171.22
2018-06-19T13:57:18.460Z,95181.90
2018-06-19T13:59:45.545Z,95183.31
2018-06-19T14:02:12.134Z,95186.25
2018-06-19T14:04:38.778Z,95185.36
2018-06-19T14:07:05.464Z,95182.52
2018-06-19T14:09:32.080Z,95181.44
2018-06-19T14:11:58.743Z,95180.95
2018-06-19T14:14:25.392Z,95184.22
2018-06-19T14:16:52.041Z,95173.31
2018-06-19T14:19:18.766Z,95172.58
2018-06-19T14:21:45.404Z,95165.86
2018-06-19T14:24:12.051Z,95158.84
2018-06-19T14:26:38.736Z,95154.93
2018-06-19T14:29:05.338Z,95153.78
2018-06-19T14:31:32.013Z,95151.48
2018-06-19T14:33:58.648Z,95152.98
2018-06-19T14:36:25.333Z,95154.69
2018-06-19T14:38:52.062Z,95148.05
2018-06-19T14:41:18.698Z,95147.87
2018-06-19T14:43:45.369Z,95147.06
2018-06-19T14:46:12.047Z,95148.40
2018-06-19T14:48:38.764Z,95151.02
2018-06-19T14:51:05.394Z,95147.05
2018-06-19T14:53:32.025Z,95143.30
2018-06-19T14:55:58.669Z,95135.06
2018-06-19T14:58:25.305Z,95140.91
2018-06-19T15:00:51.973Z,95144.95
2018-06-19T15:03:18.592Z,95136.44
2018-06-19T15:05:45.374Z,95138.20
2018-06-19T15:08:12.020Z,95130.30
2018-06-19T15:10:38.727Z,95122.84
2018-06-19T15:13:05.343Z,95137.75
2018-06-19T15:15:31.980Z,95134.73
2018-06-19T15:17:58.621Z,95139.31
2018-06-19T15:20:25.310Z,95133.67
2018-06-19T15:22:55.288Z,95135.69
2018-06-19T15:25:21.964Z,95132.22
2018-06-19T15:27:48.681Z,95130.00
2018-06-19T15:30:15.337Z,95131.69
2018-06-19T15:32:42.028Z,95131.23
2018-06-19T15:35:08.680Z,95133.78
2018-06-19T15:37:35.362Z,95141.03
2018-06-19T15:40:02.003Z,95149.56
2018-06-19T15:42:28.638Z,95153.84
2018-06-19T15:44:55.277Z,95159.63
2018-06-19T15:47:21.932Z,95158.28
2018-06-19T15:49:48.613Z,95159.19
2018-06-19T15:52:15.253Z,95167.01
2018-06-19T15:54:41.964Z,95162.98
2018-06-19T15:57:08.562Z,95170.02
2018-06-19T15:59:35.215Z,95167.05
2018-06-19T16:02:01.905Z,95174.94
2018-06-19T16:04:28.539Z,95178.95
2018-06-19T16:06:55.174Z,95182.23
2018-06-19T16:09:21.838Z,95185.88
2018-06-19T16:11:48.478Z,95198.59
2018-06-19T16:14:15.191Z,95193.26
2018-06-19T16:16:41.837Z,95193.64
2018-06-19T16:19:08.513Z,95194.84
2018-06-19T16:21:35.200Z,95203.75
2018-06-19T16:24:01.840Z,95210.44
2018-06-19T16:26:28.474Z,95216.75
2018-06-19T16:28:55.123Z,95217.75
2018-06-19T16:31:21.801Z,95214.14
2018-06-19T16:33:48.452Z,95212.89
2018-06-19T16:36:15.167Z,95215.41
2018-06-19T16:38:41.766Z,95209.91
2018-06-19T16:41:08.541Z,95215.85
2018-06-19T16:43:35.189Z,95220.45
2018-06-19T16:46:01.917Z,95219.53
2018-06-19T16:48:28.561Z,95223.48
2018-06-19T16:50:55.196Z,95234.33
2018-06-19T16:53:21.840Z,95235.16
2018-06-19T16:55:48.525Z,95232.96
2018-06-19T16:58:15.162Z,95238.28
2018-06-19T17:00:41.855Z,95242.63
2018-06-19T17:03:08.507Z,95244.59
2018-06-19T17:05:35.145Z,95252.63
2018-06-19T17:08:01.789Z,95250.78
2018-06-19T17:10:28.421Z,95254.64
2018-06-19T17:12:55.065Z,95262.41
2018-06-19T17:15:21.699Z,95257.14
2018-06-19T17:17:48.384Z,95261.22
2018-06-19T17:20:15.044Z,95264.42
2018-06-19T17:22:41.693Z,95264.56
2018-06-19T17:25:08.377Z,95268.98
2018-06-19T17:27:35.091Z,95270.59
2018-06-19T17:30:01.734Z,95273.13
2018-06-19T17:32:28.392Z,95271.81
2018-06-19T17:34:55.038Z,95271.75
2018-06-19T17:37:21.712Z,95272.72
2018-06-19T17:39:48.396Z,95273.77
2018-06-19T17:42:15.080Z,95270.91
2018-06-19T17:44:41.717Z,95264.08
2018-06-19T17:47:08.364Z,95266.41
2018-06-19T17:49:35.018Z,95266.59
2018-06-19T17:52:01.694Z,95268.12
2018-06-19T17:54:28.325Z,95270.23
2018-06-19T17:56:55.012Z,95268.19
2018-06-19T17:59:21.648Z,95273.08
2018-06-19T18:01:48.330Z,95273.87
2018-06-19T18:04:15.020Z,95275.48
2018-06-19T18:06:41.699Z,95281.51
2018-06-19T18:09:08.420Z,95283.02
2018-06-19T18:11:35.117Z,95284.94
2018-06-19T18:14:01.795Z,95284.63
2018-06-19T18:16:28.426Z,95289.71
2018-06-19T18:18:55.086Z,95289.77
2018-06-19T18:21:21.791Z,95296.11
2018-06-19T18:23:48.409Z,95297.13
2018-06-19T18:26:15.089Z,95298.14
2018-06-19T18:28:41.726Z,95300.35
2018-06-19T18:31:08.354Z,95304.80
2018-06-19T18:33:35.067Z,95303.09
2018-06-19T18:36:01.676Z,95311.72
2018-06-19T18:38:28.318Z,95311.34
2018-06-19T18:40:54.969Z,95323.00
2018-06-19T18:43:21.606Z,95328.73
2018-06-19T18:45:48.277Z,95328.78
2018-06-19T18:48:14.880Z,95332.97
2018-06-19T18:50:41.558Z,95335.52
2018-06-19T18:53:08.238Z,95338.34
2018-06-19T18:55:34.865Z,95337.56
2018-06-19T18:58:01.561Z,95338.84
2018-06-19T19:00:28.192Z,95342.15
2018-06-19T19:02:54.833Z,95347.84
2018-06-19T19:05:21.498Z,95351.19
2018-06-19T19:07:48.140Z,95353.28
2018-06-19T19:10:14.826Z,95358.30
2018-06-19T19:12:41.465Z,95356.16
2018-06-19T19:15:08.242Z,95361.91
2018-06-19T19:17:34.891Z,95367.48
2018-06-19T19:20:01.538Z,95369.66
2018-06-19T19:22:28.175Z,95365.02
2018-06-19T19:24:54.821Z,95378.20
2018-06-19T19:27:21.505Z,95381.38
2018-06-19T19:29:48.136Z,95377.19
2018-06-19T19:32:14.774Z,95376.05
2018-06-19T19:34:41.419Z,95372.56
2018-06-19T19:37:08.209Z,95376.48
2018-06-19T19:39:34.813Z,95377.27
2018-06-19T19:42:01.454Z,95379.53
2018-06-19T19:44:28.137Z,95385.64
2018-06-19T19:46:54.771Z,95385.92
2018-06-19T19:49:21.414Z,95387.08
2018-06-19T19:51:48.101Z,95384.17
2018-06-19T19:54:14.742Z,95384.17
2018-06-19T19:56:41.382Z,95385.74
2018-06-19T19:59:08.052Z,95384.34
2018-06-19T20:01:34.654Z,95387.52
2018-06-19T20:04:01.336Z,95394.60
2018-06-19T20:06:27.972Z,95396.40
2018-06-19T20:08:54.618Z,95392.00
2018-06-19T20:11:21.243Z,95390.35
2018-06-19T20:13:47.885Z,95387.45
2018-06-19T20:16:14.565Z,95387.50
2018-06-19T20:18:41.197Z,95391.13
2018-06-19T20:21:07.835Z,95391.77
2018-06-19T20:23:34.516Z,95395.86
2018-06-19T20:26:01.128Z,95394.09
2018-06-19T20:28:27.770Z,95397.26
2018-06-19T20:30:57.303Z,95398.80
2018-06-19T20:33:24.014Z,95402.22
2018-06-19T20:35:50.650Z,95399.98
2018-06-19T20:38:17.287Z,95399.48
2018-06-19T20:40:43.934Z,95402.16
2018-06-19T20:43:10.575Z,95400.66
2018-06-19T20:45:37.249Z,95398.25
2018-06-19T20:48:03.853Z,95401.95
2018-06-19T20:50:30.531Z,95406.64
2018-06-19T20:52:57.129Z,95413.62
2018-06-19T20:55:23.770Z,95404.90
2018-06-19T20:57:50.445Z,95412.51
2018-06-19T21:00:17.080Z,95408.70
2018-06-19T21:02:43.722Z,95416.71
2018-06-19T21:05:10.370Z,95413.58
2018-06-19T21:07:37.042Z,95421.32
2018-06-19T21:10:03.658Z,95416.50
2018-06-19T21:12:30.299Z,95420.94
2018-06-19T21:14:56.938Z,95418.41
2018-06-19T21:17:23.612Z,95416.67
2018-06-19T21:19:50.279Z,95416.30
2018-06-19T21:22:16.952Z,95423.45
2018-06-19T21:24:43.587Z,95427.58
2018-06-19T21:27:10.214Z,95425.59
2018-06-19T21:29:36.862Z,95426.99
2018-06-19T21:32:03.501Z,95432.45
2018-06-19T21:34:30.181Z,95435.28
2018-06-19T21:36:56.821Z,95437.31
2018-06-19T21:39:23.463Z,95445.30
2018-06-19T21:41:50.109Z,95439.60
2018-06-19T21:44:16.743Z,95446.95
2018-06-19T21:46:43.386Z,95435.33
2018-06-19T21:49:10.067Z,95446.86
2018-06-19T21:51:36.711Z,95437.63
2018-06-19T21:54:03.339Z,95438.89
2018-06-19T21:56:30.042Z,95440.83
2018-06-19T21:58:56.623Z,95446.66
2018-06-19T22:01:23.266Z,95446.80
2018-06-19T22:03:49.905Z,95446.55
2018-06-19T22:06:16.553Z,95455.03
2018-06-19T22:08:43.230Z,95451.27
2018-06-19T22:11:09.865Z,95450.39
2018-06-19T22:13:36.603Z,95455.75
2018-06-19T22:16:03.207Z,95451.16
2018-06-19T22:18:29.853Z,95452.18
2018-06-19T22:20:56.542Z,95457.25
2018-06-19T22:23:23.226Z,95459.45
2018-06-19T22:25:49.857Z,95455.36
2018-06-19T22:28:16.536Z,95453.33
2018-06-19T22:30:43.173Z,95458.45
2018-06-19T22:33:09.889Z,95454.51
2018-06-19T22:35:36.539Z,95455.78
2018-06-19T22:38:03.180Z,95464.78
2018-06-19T22:40:29.860Z,95459.37
2018-06-19T22:42:56.587Z,95461.91
2018-06-19T22:45:23.174Z,95457.73
2018-06-19T22:47:49.849Z,95461.19
2018-06-19T22:50:16.539Z,95456.88
2018-06-19T22:52:43.241Z,95458.03
2018-06-19T22:55:09.857Z,95462.00
2018-06-19T22:57:36.504Z,95457.06
2018-06-19T23:00:03.156Z,95454.66
2018-06-19T23:02:29.792Z,95459.84
2018-06-19T23:04:56.469Z,95459.73
2018-06-19T23:07:23.106Z,95461.03
2018-06-19T23:09:49.807Z,95455.71
2018-06-19T23:12:16.444Z,95457.52
2018-06-19T23:14:43.125Z,95459.30
2018-06-19T23:17:09.808Z,95456.13
2018-06-19T23:19:36.448Z,95457.41
2018-06-19T23:22:03.093Z,95460.44
2018-06-19T23:24:29.736Z,95460.48
2018-06-19T23:26:56.405Z,95458.72
2018-06-19T23:29:23.011Z,95454.53
2018-06-19T23:31:49.695Z,95445.55
2018-06-19T23:34:16.329Z,95452.64
2018-06-19T23:36:42.977Z,95454.83
2018-06-19T23:39:09.630Z,95453.82
2018-06-19T23:41:36.317Z,95455.21
2018-06-19T23:44:02.962Z,95446.98
2018-06-19T23:46:29.600Z,95443.61
2018-06-19T23:48:56.246Z,95447.57
2018-06-19T23:51:22.925Z,95443.39
2018-06-19T23:53:49.580Z,95446.69
2018-06-19T23:56:16.253Z,95443.78
2018-06-19T23:58:42.890Z,95448.22
